EW3690 Weather Reports


Display with metric or nautical units.
time (UTC)temp
F
wind
direction
speed
MPH
gust
MPH
rain 1hr
in
rain 24hr
in
rain mn
in
humidity
%
barometer
mb
20201204020113 31 193 0.0 0.0 0.00 0.00 0.00 88 1034.7
20201204014645 31 193 0.0 1.0 0.00 0.00 0.00 88 1034.5
20201204013124 32 204 0.0 2.0 0.00 0.00 0.00 86 1034.4
20201204011600 33 253 0.0 0.0 0.00 0.00 0.00 85 1034.2
20201204010036 33 319 1.0 3.0 0.00 0.00 0.00 85 1034.4
20201204004609 32 339 0.0 1.0 0.00 0.00 0.00 87 1034.1
20201204003204 31 68 0.0 1.0 0.00 0.00 0.00 89 1033.9
20201204001653 30 68 0.0 1.0 0.00 0.00 0.00 90 1033.7
20201204000105 30 68 1.0 2.0 0.00 0.00 0.00 90 1033.8
20201203234612 30 102 0.0 2.0 0.00 0.00 0.00 90 1033.6
20201203233045 30 145 0.0 0.0 0.00 0.00 0.00 90 1033.4
20201203231544 30 198 0.0 0.0 0.00 0.00 0.00 90 1033.2
20201203230053 31 115 0.0 0.0 0.00 0.00 0.00 90 1033.3
20201203224526 30 115 0.0 0.0 0.00 0.00 0.00 90 1033.3
20201203223047 31 115 0.0 0.0 0.00 0.00 0.00 88 1033.3
20201203221526 33 152 0.0 1.0 0.00 0.00 0.00 85 1033.2
20201203220027 34 106 0.0 0.0 0.00 0.00 0.00 84 1033.0
20201203214545 33 104 0.0 1.0 0.00 0.00 0.00 87 1033.0
20201203213211 33 205 0.0 0.0 0.00 0.00 0.00 85 1033.0
20201203211700 33 173 0.0 0.0 0.00 0.00 0.00 88 1033.1
20201203210110 33 263 0.0 0.0 0.00 0.00 0.00 86 1032.9
20201203204545 34 203 0.0 1.0 0.00 0.00 0.00 85 1033.1
20201203203030 33 255 0.0 3.0 0.00 0.00 0.00 85 1033.0
20201203201542 34 264 1.0 8.0 0.00 0.00 0.00 83 1032.8
20201203200244 33 347 8.0 11.0 0.00 0.00 0.00 82 1033.0
20201203194701 34 8 6.0 10.0 0.00 0.00 0.00 80 1033.2
20201203193057 34 8 10.0 13.0 0.00 0.00 0.00 80 1033.4
20201203191555 34 8 10.0 13.0 0.00 0.00 0.00 79 1033.5
20201203190047 34 1 10.0 13.0 0.00 0.00 0.00 78 1033.5
20201203184604 34 6 10.0 15.0 0.00 0.00 0.00 79 1033.6
20201203183008 34 341 10.0 16.0 0.00 0.00 0.00 79 1033.7
20201203181508 34 4 12.0 16.0 0.00 0.00 0.00 79 1033.8
20201203180146 34 23 13.0 17.0 0.00 0.00 0.00 80 1033.9
20201203174713 33 10 15.0 20.0 0.00 0.00 0.00 81 1033.8
20201203173046 33 4 14.0 19.0 0.00 0.00 0.00 81 1033.7
20201203171606 33 37 15.0 22.0 0.00 0.00 0.00 82 1033.6
20201203170120 32 9 10.0 22.0 0.00 0.00 0.00 82 1033.4
20201203164715 32 352 17.0 22.0 0.00 0.00 0.00 82 1033.3
20201203163111 32 359 15.0 20.0 0.00 0.00 0.00 82 1033.1
20201203161702 31 4 14.0 16.0 0.00 0.00 0.00 83 1033.0
20201203154520 30 352 12.0 15.0 0.00 0.00 0.00 84 1032.8
20201203153123 30 6 13.0 15.0 0.00 0.00 0.00 84 1032.7
20201203151706 30 5 13.0 16.0 0.00 0.00 0.00 83 1032.7
20201203150058 30 355 12.0 15.0 0.00 0.00 0.00 83 1032.7
20201203144625 30 31 8.0 15.0 0.00 0.00 0.00 83 1032.6
20201203143052 30 4 7.0 15.0 0.00 0.00 0.00 84 1032.5
20201203141542 30 354 10.0 13.0 0.00 0.00 0.00 85 1032.3
20201203140219 29 348 8.0 10.0 0.00 0.00 0.00 85 1032.3
20201203134735 29 348 8.0 10.0 0.00 0.00 0.00 85 1032.3
20201203133108 30 6 7.0 10.0 0.00 0.00 0.00 84 1032.4
20201203131559 30 8 8.0 11.0 0.00 0.00 0.00 84 1032.3
20201203130057 29 358 7.0 10.0 0.00 0.00 0.00 84 1032.3
20201203124544 30 9 6.0 11.0 0.00 0.00 0.00 84 1032.2
20201203121718 30 13 4.0 10.0 0.00 0.00 0.00 84 1032.6
20201203120222 29 359 5.0 9.0 0.00 0.00 0.00 84 1032.3
20201203114604 30 355 7.0 10.0 0.00 0.00 0.00 84 1032.4
20201203113140 29 8 5.0 10.0 0.00 0.00 0.00 84 1032.4
20201203111529 30 4 6.0 9.0 0.00 0.00 0.00 84 1032.6
20201203110026 30 10 7.0 15.0 0.00 0.00 0.00 83 1032.5
20201203104649 30 11 15.0 19.0 0.00 0.00 0.00 84 1032.6
20201203103207 30 356 16.0 21.0 0.00 0.00 0.00 84 1032.5
20201203101545 30 360 16.0 19.0 0.00 0.00 0.00 85 1032.5
20201203100110 30 27 19.0 21.0 0.00 0.00 0.00 85 1032.3
20201203094525 29 311 7.0 11.0 0.00 0.00 0.00 86 1032.5
20201203093036 29 359 4.0 6.0 0.00 0.00 0.00 86 1032.6
20201203091622 29 342 0.0 3.0 0.00 0.00 0.00 86 1032.5
20201203090322 30 350 0.0 2.0 0.00 0.00 0.00 85 1032.6
20201203084629 29 30 0.0 2.0 0.00 0.00 0.00 86 1032.5
20201203083052 29 69 0.0 6.0 0.00 0.00 0.00 86 1032.4
20201203081518 29 3 6.0 11.0 0.00 0.00 0.00 87 1032.2
20201203080024 29 330 1.0 6.0 0.00 0.00 0.00 87 1032.4
20201203074641 29 350 0.0 2.0 0.00 0.00 0.00 87 1032.5
20201203073145 29 290 0.0 1.0 0.00 0.00 0.00 86 1032.7
20201203071615 29 276 0.0 1.0 0.00 0.00 0.00 86 1032.7
20201203070102 29 331 0.0 6.0 0.00 0.00 0.00 86 1033.0
20201203064521 30 360 5.0 7.0 0.00 0.00 0.00 84 1033.1
20201203063019 30 333 10.0 14.0 0.00 0.00 0.00 84 1033.0
20201203061632 30 327 9.0 12.0 0.00 0.00 0.00 84 1033.0
20201203060139 30 342 10.0 13.0 0.00 0.00 0.00 84 1033.1
20201203054549 30 345 5.0 9.0 0.00 0.00 0.00 85 1033.1
20201203053109 30 315 2.0 9.0 0.00 0.00 0.00 85 1033.3
20201203051532 30 332 6.0 13.0 0.00 0.00 0.00 84 1033.1
20201203050026 30 15 7.0 15.0 0.00 0.00 0.00 84 1033.0
20201203044632 30 343 10.0 14.0 0.00 0.00 0.00 83 1033.0
20201203043112 31 335 9.0 14.0 0.00 0.00 0.00 83 1033.0
20201203041556 31 4 14.0 18.0 0.00 0.00 0.00 83 1032.9
20201203040109 31 322 12.0 18.0 0.00 0.00 0.00 83 1032.8
20201203034538 31 323 11.0 22.0 0.00 0.00 0.00 82 1032.9
20201203033020 31 346 9.0 20.0 0.00 0.00 0.00 83 1033.0
20201203031657 31 338 18.0 25.0 0.00 0.00 0.00 83 1032.9
20201203030204 31 347 14.0 19.0 0.00 0.00 0.00 83 1033.0
20201203024554 31 360 14.0 22.0 0.00 0.00 0.00 82 1032.8
20201203023037 31 331 14.0 19.0 0.00 0.00 0.00 82 1032.9
20201203021558 31 357 11.0 17.0 0.00 0.00 0.00 81 1033.1